Time;durP1;ratioP1;P1;durP2;ratioP2;P2;SDS_P1;SDS_P2;PMS_P1;PMS_P2;Temp;Humidity;BMP_temperature;BMP_pressure;BME280_temperature;BME280_humidity;BME280_pressure;Samples;Min_cycle;Max_cycle;Signal;HPM_P1;HPM_P2
2022/08/23 00:01:05;;;;;;;;;;;;;;;18.50;100.00;-1052.25;5052373;28;19924;-81
2022/08/23 00:03:31;;;;;;;;;;;;;;;18.58;100.00;-2049.19;5052917;28;19917;-80
2022/08/23 00:05:56;;;;;;;;;;;;;;;18.52;100.00;-4376.66;5052687;28;19916;-81
2022/08/23 00:08:23;;;;;;;;;;;;;;;18.53;100.00;-9026.38;5052738;28;20470;-78
2022/08/23 00:10:48;;;;;;;;;;;;;;;18.54;100.00;-10022.06;5052900;28;19968;-80
2022/08/23 00:13:14;;;;;;;;;;;;;;;18.46;100.00;-9689.94;5052640;28;20333;-81
2022/08/23 00:15:40;;;;;;;;;;;;;;;18.47;100.00;-9358.16;5050680;28;19923;-81
2022/08/23 00:18:05;;;;;;;;;;;;;;;18.47;100.00;-8694.34;5052813;28;19916;-81
2022/08/23 00:20:30;;;;;;;;;;;;;;;18.53;100.00;-8362.47;5052829;28;19960;-77
2022/08/23 00:22:56;;;;;;;;;;;;;;;18.51;100.00;-9690.13;5052810;28;19917;-78
2022/08/23 00:25:21;;;;;;;;;;;;;;;18.43;100.00;-10021.66;5052995;28;20387;-77
2022/08/23 00:27:46;;;;;;;;;;;;;;;18.38;100.00;-9689.72;5052866;28;20301;-80
2022/08/23 00:30:12;;;;;;;;;;;;;;;18.41;100.00;-10021.59;5051977;28;19963;-80
2022/08/23 00:32:39;;;;;;;;;;;;;;;18.43;100.00;-9026.16;5052908;28;19975;-80
2022/08/23 00:35:05;;;;;;;;;;;;;;;18.37;100.00;-7698.44;5052749;28;19913;-80
2022/08/23 00:37:31;;;;;;;;;;;;;;;18.44;100.00;-7366.44;5052178;28;19924;-78
2022/08/23 00:39:57;;;;;;;;;;;;;;;18.32;100.00;-6702.53;5052763;28;19940;-79
2022/08/23 00:47:51;;;;;;;;;;;;;;;18.46;100.00;-5041.50;5060546;28;20010;-80
2022/08/23 00:50:21;;;;;;;;;;;;;;;18.57;100.00;-3046.75;5052411;28;19916;-80
2022/08/23 00:53:00;;;;;;;;;;;;;;;18.63;100.00;-1050.78;5053650;28;19924;-77
2022/08/23 00:55:27;;;;;;;;;;;;;;;18.69;100.00;-51.97;5060984;28;19939;-79
2022/08/23 00:57:53;;;;;;;;;;;;;;;18.72;100.00;1279.84;5060452;28;19924;-79
2022/08/23 01:00:19;;;;;;;;;;;;;;;18.72;100.00;-1382.63;5058420;28;19952;-80
2022/08/23 01:02:47;;;;;;;;;;;;;;;18.63;100.00;-8030.53;5051954;28;19956;-81
2022/08/23 01:05:13;;;;;;;;;;;;;;;18.56;100.00;-13339.28;5051268;28;19977;-78
2022/08/23 01:07:45;;;;;;;;;;;;;;;18.48;100.00;-16652.44;5051568;28;20007;-78
2022/08/23 01:10:29;;;;;;;;;;;;;;;18.52;100.00;-18308.91;5052192;28;20028;-79
2022/08/23 01:13:08;;;;;;;;;;;;;;;18.56;100.00;-18640.72;5051398;28;19924;-80
2022/08/23 01:15:42;;;;;;;;;;;;;;;18.51;100.00;-20956.59;5051996;28;19924;-79
2022/08/23 01:18:10;;;;;;;;;;;;;;;18.53;100.00;-23603.34;5046887;28;19970;-79
2022/08/23 01:20:50;;;;;;;;;;;;;;;18.44;100.00;-24923.41;5052070;28;19924;-79
2022/08/23 01:23:36;;;;;;;;;;;;;;;18.40;100.00;-25585.00;5052055;28;20438;-80
2022/08/23 01:26:02;;;;;;;;;;;;;;;18.30;100.00;-25582.41;5051802;28;20337;-78
2022/08/23 01:28:27;;;;;;;;;;;;;;;18.39;100.00;-25584.72;5051967;28;19921;-79
2022/08/23 01:30:53;;;;;;;;;;;;;;;18.45;100.00;-25586.59;5033020;28;19948;-81
2022/08/23 01:33:20;;;;;;;;;;;;;;;18.52;100.00;-25588.47;5049743;28;20030;-77
2022/08/23 01:35:50;;;;;;;;;;;;;;;18.59;100.00;-25590.50;5050555;28;19917;-78
2022/08/23 01:38:15;;;;;;;;;;;;;;;18.52;100.00;-25588.31;5050749;28;19924;-79
2022/08/23 01:40:41;;;;;;;;;;;;;;;18.54;100.00;-25589.03;5050660;28;19917;-79
2022/08/23 01:43:08;;;;;;;;;;;;;;;18.53;100.00;-25588.63;5049991;28;20062;-77
2022/08/23 01:45:34;;;;;;;;;;;;;;;18.55;100.00;-25589.34;5051224;28;19917;-79
2022/08/23 01:48:01;;;;;;;;;;;;;;;18.47;100.00;-25587.16;5050658;28;19923;-77
2022/08/23 01:50:27;;;;;;;;;;;;;;;18.51;100.00;-25588.03;5052141;28;19978;-79
2022/08/23 01:52:56;;;;;;;;;;;;;;;18.57;100.00;-25589.78;5054513;28;19916;-77
2022/08/23 01:55:21;;;;;;;;;;;;;;;18.47;100.00;-25587.03;5054469;28;19917;-78
2022/08/23 01:57:49;;;;;;;;;;;;;;;18.40;100.00;-25585.00;5054095;28;19921;-80
2022/08/23 02:00:14;;;;;;;;;;;;;;;18.32;100.00;-25582.81;5053097;28;19921;-77
2022/08/23 02:02:40;;;;;;;;;;;;;;;18.18;100.00;-25578.78;5053358;28;19987;-76
2022/08/23 02:05:07;;;;;;;;;;;;;;;18.16;100.00;-25578.19;5050739;28;19960;-74
2022/08/23 02:07:33;;;;;;;;;;;;;;;18.14;100.00;-25577.75;5036800;28;19956;-77
2022/08/23 02:09:58;;;;;;;;;;;;;;;18.12;100.00;-25577.19;5053285;28;19948;-78
2022/08/23 02:12:24;;;;;;;;;;;;;;;18.20;100.00;-25579.50;5036343;28;19920;-77
2022/08/23 02:14:50;;;;;;;;;;;;;;;18.22;100.00;-25579.94;5053780;28;19916;-79
2022/08/23 02:17:16;;;;;;;;;;;;;;;18.25;100.00;-25580.94;5054660;28;19970;-79
2022/08/23 02:19:42;;;;;;;;;;;;;;;18.23;100.00;-25580.38;5053902;28;19963;-79
2022/08/23 02:22:08;;;;;;;;;;;;;;;18.17;100.00;-25578.63;5053840;28;20436;-79
2022/08/23 02:24:38;;;;;;;;;;;;;;;18.10;100.00;-25576.75;5054348;28;19971;-81
2022/08/23 02:27:03;;;;;;;;;;;;;;;18.14;100.00;-25577.63;5053647;28;20294;-78
2022/08/23 02:29:29;;;;;;;;;;;;;;;18.17;100.00;-25578.63;5054439;28;19917;-79
2022/08/23 02:31:55;;;;;;;;;;;;;;;18.22;100.00;-25580.06;5053641;28;20006;-80
2022/08/23 02:34:21;;;;;;;;;;;;;;;18.29;100.00;-25582.09;5053817;28;19923;-80
2022/08/23 02:36:46;;;;;;;;;;;;;;;18.25;100.00;-25580.81;5053685;28;19917;-76
2022/08/23 02:39:12;;;;;;;;;;;;;;;18.17;100.00;-25578.50;5053474;28;20235;-80
2022/08/23 02:41:38;;;;;;;;;;;;;;;18.11;100.00;-25576.91;5053961;28;19975;-79
2022/08/23 02:44:06;;;;;;;;;;;;;;;18.07;100.00;-25575.88;5053619;28;19917;-79
2022/08/23 02:46:31;;;;;;;;;;;;;;;18.06;100.00;-25575.44;5053639;28;19923;-78
2022/08/23 02:48:57;;;;;;;;;;;;;;;18.00;100.00;-25573.72;5053162;28;19920;-77
2022/08/23 02:51:23;;;;;;;;;;;;;;;18.01;100.00;-25574.16;5053794;28;19939;-78
2022/08/23 02:53:51;;;;;;;;;;;;;;;18.04;100.00;-25575.00;5053715;28;19924;-78
2022/08/23 02:56:17;;;;;;;;;;;;;;;18.15;100.00;-25577.91;5053401;28;19916;-77
2022/08/23 02:58:44;;;;;;;;;;;;;;;18.16;100.00;-25578.19;5054072;28;19921;-80
2022/08/23 03:01:20;;;;;;;;;;;;;;;18.17;100.00;-25578.63;5052928;28;20370;-80
2022/08/23 03:03:48;;;;;;;;;;;;;;;18.22;100.00;-25580.06;5048794;28;20062;-77
2022/08/23 03:06:14;;;;;;;;;;;;;;;18.29;100.00;-25581.97;5052899;28;19921;-79
2022/08/23 03:08:39;;;;;;;;;;;;;;;18.28;100.00;-25581.66;5053551;28;19917;-81
2022/08/23 03:11:12;;;;;;;;;;;;;;;18.39;100.00;-25584.72;5053159;28;19916;-80
2022/08/23 03:13:44;;;;;;;;;;;;;;;18.41;100.00;-25585.44;5053414;28;19927;-80
2022/08/23 03:16:10;;;;;;;;;;;;;;;18.43;100.00;-25585.88;5052903;28;19917;-80
2022/08/23 03:18:36;;;;;;;;;;;;;;;18.36;100.00;-25583.97;5053593;28;19923;-80
2022/08/23 03:21:03;;;;;;;;;;;;;;;18.29;100.00;-25582.09;5053066;28;19963;-79
2022/08/23 03:23:29;;;;;;;;;;;;;;;18.36;100.00;-25583.84;5052540;28;20277;-79
2022/08/23 03:25:56;;;;;;;;;;;;;;;18.46;100.00;-25586.72;5053321;28;19981;-78
2022/08/23 03:28:21;;;;;;;;;;;;;;;18.56;100.00;-25589.63;5053466;28;20011;-80
2022/08/23 03:30:46;;;;;;;;;;;;;;;18.63;100.00;-25591.50;5053191;28;19983;-78
2022/08/23 03:33:12;;;;;;;;;;;;;;;18.59;100.00;-25590.34;5053153;28;19921;-80
2022/08/23 03:35:37;;;;;;;;;;;;;;;18.72;100.00;-25594.09;5053254;28;19927;-79
2022/08/23 03:38:02;;;;;;;;;;;;;;;18.78;100.00;-25595.69;5052670;28;20020;-80
2022/08/23 03:40:28;;;;;;;;;;;;;;;18.66;100.00;-25592.38;5052600;28;19921;-80
2022/08/23 03:43:02;;;;;;;;;;;;;;;18.68;100.00;-25592.81;5053275;28;20051;-76
2022/08/23 03:45:28;;;;;;;;;;;;;;;18.62;100.00;-25591.34;5053040;28;19970;-79
2022/08/23 03:47:53;;;;;;;;;;;;;;;18.62;100.00;-25591.34;5053303;28;20516;-76
2022/08/23 03:50:19;;;;;;;;;;;;;;;18.71;100.00;-25593.69;5053042;28;19917;-80
2022/08/23 03:52:47;;;;;;;;;;;;;;;18.76;100.00;-25595.13;5052943;28;19956;-77
2022/08/23 03:55:13;;;;;;;;;;;;;;;18.85;100.00;-25597.72;5053254;28;20037;-79
2022/08/23 03:57:38;;;;;;;;;;;;;;;18.82;100.00;-25597.00;5051213;28;20372;-78
2022/08/23 04:00:08;;;;;;;;;;;;;;;18.82;100.00;-25596.84;5050906;28;20051;-77
2022/08/23 04:02:34;;;;;;;;;;;;;;;18.76;100.00;-25595.13;5051504;28;19952;-75
2022/08/23 04:05:00;;;;;;;;;;;;;;;18.84;100.00;-25597.44;5051318;28;19916;-79
2022/08/23 04:07:25;;;;;;;;;;;;;;;18.84;100.00;-25597.44;5051598;28;19916;-80
2022/08/23 04:09:50;;;;;;;;;;;;;;;18.86;100.00;-25598.00;5052035;28;19921;-80
2022/08/23 04:12:18;;;;;;;;;;;;;;;18.88;100.00;-25598.59;5050465;28;20023;-78
2022/08/23 04:14:44;;;;;;;;;;;;;;;18.88;100.00;-25598.44;5052000;28;20293;-80
2022/08/23 04:17:11;;;;;;;;;;;;;;;18.90;100.00;-25599.03;5051610;28;20370;-79
2022/08/23 04:19:37;;;;;;;;;;;;;;;18.85;100.00;-25597.72;5052000;28;19916;-79
2022/08/23 04:22:02;;;;;;;;;;;;;;;18.86;100.00;-25598.00;5051780;28;20015;-79
2022/08/23 04:24:28;;;;;;;;;;;;;;;18.81;100.00;-25596.72;5052177;28;20281;-78
2022/08/23 04:26:53;;;;;;;;;;;;;;;18.80;100.00;-25596.28;5052034;28;19920;-80
2022/08/23 04:29:18;;;;;;;;;;;;;;;18.76;100.00;-25595.13;5052158;28;19973;-79
2022/08/23 04:31:44;;;;;;;;;;;;;;;18.65;100.00;-25592.09;5035223;28;19929;-78
2022/08/23 04:34:16;;;;;;;;;;;;;;;18.66;100.00;-25592.50;5051048;28;20811;-81
2022/08/23 04:36:42;;;;;;;;;;;;;;;18.65;100.00;-25592.22;5051900;28;19917;-79
2022/08/23 04:39:08;;;;;;;;;;;;;;;18.65;100.00;-25592.22;5051611;28;19921;-81
2022/08/23 04:44:17;;;;;;;;;;;;;;;18.61;100.00;-25591.06;5053011;28;20427;-80
2022/08/23 04:46:43;;;;;;;;;;;;;;;18.58;100.00;-25590.22;5051310;28;20019;-79
2022/08/23 04:49:09;;;;;;;;;;;;;;;18.57;100.00;-25589.78;5050983;28;19960;-80
2022/08/23 04:51:34;;;;;;;;;;;;;;;18.41;100.00;-25585.44;5051033;28;19963;-76
2022/08/23 04:54:02;;;;;;;;;;;;;;;18.46;100.00;-25586.72;5050799;28;19979;-76
2022/08/23 04:56:28;;;;;;;;;;;;;;;18.46;100.00;-25586.72;5051383;28;19924;-78
2022/08/23 04:58:54;;;;;;;;;;;;;;;18.50;100.00;-25587.88;5052677;28;20269;-78
2022/08/23 05:01:19;;;;;;;;;;;;;;;18.50;100.00;-25587.88;5051351;28;20015;-79
2022/08/23 05:03:46;;;;;;;;;;;;;;;18.49;100.00;-25587.59;5051665;28;20256;-79
2022/08/23 05:06:13;;;;;;;;;;;;;;;18.56;100.00;-25589.63;5051320;28;20357;-79
2022/08/23 05:08:38;;;;;;;;;;;;;;;18.57;100.00;-25589.91;5051276;28;19967;-80
2022/08/23 05:11:04;;;;;;;;;;;;;;;18.61;100.00;-25591.06;5050974;28;19917;-75
2022/08/23 05:13:39;;;;;;;;;;;;;;;18.66;100.00;-25592.38;5051388;28;19917;-79
2022/08/23 05:16:05;;;;;;;;;;;;;;;18.65;100.00;-25592.22;5050100;28;19948;-77
2022/08/23 05:18:30;;;;;;;;;;;;;;;18.76;100.00;-25595.13;5050464;28;20010;-75
2022/08/23 05:20:56;;;;;;;;;;;;;;;18.77;100.00;-25595.41;5050018;28;20530;-80
2022/08/23 05:23:21;;;;;;;;;;;;;;;18.79;100.00;-25596.13;5050608;28;20306;-77
2022/08/23 05:25:50;;;;;;;;;;;;;;;18.84;100.00;-25597.44;5054476;28;19913;-78
2022/08/23 05:28:17;;;;;;;;;;;;;;;18.92;100.00;-25599.59;5054720;28;19924;-80
2022/08/23 05:30:42;;;;;;;;;;;;;;;18.89;100.00;-25598.88;5055373;28;19924;-76
2022/08/23 05:33:07;;;;;;;;;;;;;;;18.92;100.00;-25599.75;5054654;28;20385;-80
2022/08/23 05:35:33;;;;;;;;;;;;;;;18.99;100.00;-25601.63;5055309;28;19962;-77
2022/08/23 05:37:59;;;;;;;;;;;;;;;18.98;100.00;-25601.47;5054688;28;19924;-80
2022/08/23 05:40:25;;;;;;;;;;;;;;;18.97;100.00;-25601.03;5055966;28;20449;-78
2022/08/23 05:42:52;;;;;;;;;;;;;;;19.05;100.00;-25603.22;5055432;28;19917;-79
2022/08/23 05:45:17;;;;;;;;;;;;;;;18.87;100.00;-25598.31;5055305;28;19939;-79
2022/08/23 05:47:43;;;;;;;;;;;;;;;18.88;100.00;-25598.59;5055515;28;19916;-77
2022/08/23 05:50:08;;;;;;;;;;;;;;;18.84;100.00;-25597.44;5054214;28;19917;-78
2022/08/23 05:52:34;;;;;;;;;;;;;;;18.78;100.00;-25595.69;5055107;28;20007;-77
2022/08/23 05:54:59;;;;;;;;;;;;;;;19.00;100.00;-25602.06;5055132;28;20016;-76
2022/08/23 05:57:24;;;;;;;;;;;;;;;19.77;100.00;-25623.56;5053731;28;19982;-78
2022/08/23 05:59:50;;;;;;;;;;;;;;;20.74;100.00;-25650.81;5052930;28;19928;-78
2022/08/23 06:02:15;;;;;;;;;;;;;;;21.09;100.00;-25660.47;5057239;28;19917;-78
2022/08/23 06:04:40;;;;;;;;;;;;;;;21.16;100.00;-25662.47;5060035;28;19920;-78
2022/08/23 06:07:09;;;;;;;;;;;;;;;21.20;100.00;-25663.63;5060056;28;19924;-80
2022/08/23 06:09:35;;;;;;;;;;;;;;;21.42;100.00;-22678.81;5059133;28;19928;-80
2022/08/23 06:12:02;;;;;;;;;;;;;;;21.53;100.00;-18691.59;5059086;28;19984;-78
2022/08/23 06:14:28;;;;;;;;;;;;;;;21.64;100.00;-9032.69;5058326;28;20338;-80
2022/08/23 06:16:55;;;;;;;;;;;;;;;21.82;100.00;-2020.06;5055033;28;19938;-79
2022/08/23 06:19:21;;;;;;;;;;;;;;;21.45;100.00;3325.31;5054628;28;19921;-82
2022/08/23 06:21:46;;;;;;;;;;;;;;;21.70;100.00;3999.00;5055630;28;19923;-83
2022/08/23 06:24:12;;;;;;;;;;;;;;;21.69;100.00;6342.50;5055286;28;19924;-77
2022/08/23 06:26:39;;;;;;;;;;;;;;;21.68;100.00;8352.22;5052884;28;19920;-79
2022/08/23 06:29:06;;;;;;;;;;;;;;;21.42;100.00;15385.91;5052516;28;19917;-77
2022/08/23 06:31:47;;;;;;;;;;;;;;;21.21;100.00;20077.03;5052824;28;19924;-78
2022/08/23 06:34:16;;;;;;;;;;;;;;;21.69;100.00;33565.53;5052765;28;20003;-77
2022/08/23 06:36:41;;;;;;;;;;;;;;;21.50;100.00;47401.53;5053050;28;19924;-78
2022/08/23 06:39:08;;;;;;;;;;;;;;;21.68;100.00;59280.69;5052873;28;20016;-77
2022/08/23 06:41:33;;;;;;;;;;;;;;;21.79;100.00;69150.53;5053021;28;19924;-79
2022/08/23 06:44:01;;;;;;;;;;;;;;;22.68;100.00;84625.91;5053099;28;20011;-77
2022/08/23 06:46:27;;;;;;;;;;;;;;;23.68;100.00;148670.38;5052354;28;19920;-77
2022/08/23 06:48:52;;;;;;;;;;;;;;;23.86;100.00;148714.06;5052859;28;19916;-77
2022/08/23 06:51:25;;;;;;;;;;;;;;;23.38;100.00;148595.88;5053503;28;20556;-78
2022/08/23 06:53:54;;;;;;;;;;;;;;;23.18;100.00;148544.56;5052392;28;19917;-77
2022/08/23 06:56:21;;;;;;;;;;;;;;;23.11;100.00;148527.88;5052607;28;19913;-78
2022/08/23 06:58:46;;;;;;;;;;;;;;;23.01;100.00;148502.16;5052954;28;20443;-78
2022/08/23 07:01:31;;;;;;;;;;;;;;;23.14;100.00;148535.59;5052461;28;19920;-78
2022/08/23 07:03:57;;;;;;;;;;;;;;;23.44;100.00;148610.03;5052397;28;20012;-77
2022/08/23 07:06:23;;;;;;;;;;;;;;;24.44;100.00;148859.19;5053712;28;19916;-78
2022/08/23 07:08:49;;;;;;;;;;;;;;;25.89;100.00;149221.72;5053039;28;19970;-78
2022/08/23 07:11:14;;;;;;;;;;;;;;;26.89;100.00;149472.56;5052136;28;20274;-78
2022/08/23 07:13:40;;;;;;;;;;;;;;;27.93;100.00;149732.59;5051439;28;19967;-78
2022/08/23 07:16:05;;;;;;;;;;;;;;;28.76;100.00;149940.00;5052494;28;19986;-77
2022/08/23 07:18:31;;;;;;;;;;;;;;;28.71;100.00;149928.38;5052096;28;19924;-78
2022/08/23 07:20:57;;;;;;;;;;;;;;;28.70;100.00;149925.84;5050972;28;19923;-78
2022/08/23 07:23:24;;;;;;;;;;;;;;;29.28;100.00;150070.16;5052208;28;19960;-77
2022/08/23 07:25:50;;;;;;;;;;;;;;;29.07;100.00;150017.28;5051593;28;19913;-76
2022/08/23 07:28:15;;;;;;;;;;;;;;;29.25;100.00;150063.72;5052329;28;19923;-76
2022/08/23 07:30:41;;;;;;;;;;;;;;;28.52;100.00;149879.44;5050814;28;20331;-76
2022/08/23 07:33:07;;;;;;;;;;;;;;;28.34;100.00;149835.66;5050887;28;19929;-77
2022/08/23 07:35:32;;;;;;;;;;;;;;;28.53;100.00;149882.03;5050729;28;20008;-75
2022/08/23 07:37:57;;;;;;;;;;;;;;;27.91;100.00;149727.47;5051085;28;19920;-76
2022/08/23 07:40:23;;;;;;;;;;;;;;;28.13;100.00;149782.84;5051007;28;19916;-77
2022/08/23 07:42:49;;;;;;;;;;;;;;;28.45;100.00;149863.97;5050738;28;19928;-78
2022/08/23 07:45:15;;;;;;;;;;;;;;;29.89;100.00;150224.88;5051391;28;19928;-78
2022/08/23 07:47:41;;;;;;;;;;;;;;;30.06;100.00;150266.09;5050902;28;20300;-78
2022/08/23 07:50:06;;;;;;;;;;;;;;;29.80;100.00;150201.66;5050548;28;19924;-78
2022/08/23 07:52:32;;;;;;;;;;;;;;;30.88;100.00;150471.13;5051559;28;19917;-78
2022/08/23 07:54:57;;;;;;;;;;;;;;;30.37;100.00;150343.44;5052610;28;19921;-78
2022/08/23 07:57:22;;;;;;;;;;;;;;;30.02;100.00;150257.06;5051124;28;19916;-79
2022/08/23 07:59:48;;;;;;;;;;;;;;;30.42;100.00;150356.34;5052652;28;19921;-79
2022/08/23 08:02:13;;;;;;;;;;;;;;;30.71;100.00;150429.84;5051932;28;19921;-81
2022/08/23 08:04:38;;;;;;;;;;;;;;;31.18;100.00;150547.25;5053143;28;19939;-81
2022/08/23 08:07:04;;;;;;;;;;;;;;;30.36;100.00;150342.16;5051253;28;19917;-77
2022/08/23 08:09:29;;;;;;;;;;;;;;;30.71;100.00;150428.59;5053607;28;20015;-82
2022/08/23 08:11:55;;;;;;;;;;;;;;;30.72;100.00;150431.19;5051671;28;19917;-81
2022/08/23 08:14:28;;;;;;;;;;;;;;;30.05;100.00;150263.53;5053431;28;20351;-82
2022/08/23 08:16:55;;;;;;;;;;;;;;;30.57;100.00;150393.75;5052172;28;20012;-78
2022/08/23 08:19:20;;;;;;;;;;;;;;;30.33;100.00;150334.41;5052464;28;19916;-81
2022/08/23 08:21:46;;;;;;;;;;;;;;;30.72;100.00;150431.19;5052338;28;19917;-82
2022/08/23 08:24:13;;;;;;;;;;;;;;;30.22;100.00;150306.03;5052377;28;19917;-80
2022/08/23 08:26:39;;;;;;;;;;;;;;;29.95;100.00;150239.00;5053332;28;19929;-82
2022/08/23 08:29:05;;;;;;;;;;;;;;;30.31;100.00;150327.97;5051618;28;19917;-81
2022/08/23 08:31:30;;;;;;;;;;;;;;;29.84;100.00;150210.66;5050862;28;19921;-81
2022/08/23 08:33:57;;;;;;;;;;;;;;;30.01;100.00;150254.47;5051086;28;20369;-82
2022/08/23 08:36:30;;;;;;;;;;;;;;;30.15;100.00;150289.28;5050121;28;19973;-80
2022/08/23 08:38:56;;;;;;;;;;;;;;;30.43;100.00;150360.22;5051974;28;19917;-81
2022/08/23 08:41:27;;;;;;;;;;;;;;;29.85;100.00;150214.53;5052297;28;19917;-82
2022/08/23 08:44:02;;;;;;;;;;;;;;;29.36;100.00;150090.78;5053068;28;20276;-81
2022/08/23 08:46:36;;;;;;;;;;;;;;;28.45;100.00;149863.97;5052408;28;19936;-81
2022/08/23 08:49:03;;;;;;;;;;;;;;;27.84;100.00;149710.69;5053279;28;19916;-82
2022/08/23 08:51:32;;;;;;;;;;;;;;;27.83;100.00;149706.88;5054663;28;20476;-82
2022/08/23 08:53:58;;;;;;;;;;;;;;;27.66;100.00;149665.66;5051277;28;20015;-78
2022/08/23 08:56:23;;;;;;;;;;;;;;;26.91;100.00;149477.75;5050118;28;19966;-78
2022/08/23 08:58:50;;;;;;;;;;;;;;;26.97;100.00;149493.19;5052361;28;19921;-78
2022/08/23 09:01:17;;;;;;;;;;;;;;;26.86;100.00;149466.19;5055094;28;19916;-78
2022/08/23 09:03:43;;;;;;;;;;;;;;;27.42;100.00;149603.88;5055483;28;19935;-77
2022/08/23 09:06:08;;;;;;;;;;;;;;;26.78;100.00;149445.56;5055960;28;19921;-77
2022/08/23 09:08:41;;;;;;;;;;;;;;;27.70;100.00;149674.66;5055022;28;19917;-78
2022/08/23 09:11:07;;;;;;;;;;;;;;;28.23;100.00;149807.31;5055971;28;20285;-79
2022/08/23 09:13:59;;;;;;;;;;;;;;;28.23;100.00;149808.63;5054907;28;19951;-78
2022/08/23 09:16:44;;;;;;;;;;;;;;;28.17;100.00;149791.84;5056123;28;19917;-78
2022/08/23 09:19:10;;;;;;;;;;;;;;;29.00;100.00;150001.81;5054402;28;19928;-78
2022/08/23 09:21:55;;;;;;;;;;;;;;;29.46;100.00;150116.56;5053770;28;19924;-78
2022/08/23 09:24:22;;;;;;;;;;;;;;;29.73;100.00;150184.81;5054021;28;19920;-79
2022/08/23 09:26:48;;;;;;;;;;;;;;;29.62;100.00;150156.50;5054717;28;19921;-79
2022/08/23 09:29:32;;;;;;;;;;;;;;;29.93;100.00;150233.88;5054080;28;19944;-81
2022/08/23 09:32:02;;;;;;;;;;;;;;;29.47;100.00;150117.81;5054618;28;19924;-79
2022/08/23 09:34:37;;;;;;;;;;;;;;;29.47;100.00;150119.09;5055835;28;19917;-81
2022/08/23 09:37:12;;;;;;;;;;;;;;;28.93;100.00;149982.50;5054188;28;20030;-81
2022/08/23 09:39:39;;;;;;;;;;;;;;;28.76;100.00;149940.00;5054919;28;19917;-79
2022/08/23 09:42:08;;;;;;;;;;;;;;;28.09;100.00;149773.84;5055787;28;20339;-81
2022/08/23 09:44:42;;;;;;;;;;;;;;;28.65;100.00;149914.25;5054730;28;20347;-81
2022/08/23 09:47:07;;;;;;;;;;;;;;;28.23;100.00;149808.63;5054628;28;19916;-80
2022/08/23 09:49:32;;;;;;;;;;;;;;;27.88;100.00;149721.00;5055519;28;19916;-81
2022/08/23 09:51:59;;;;;;;;;;;;;;;28.06;100.00;149766.13;5054264;28;19921;-80
2022/08/23 09:54:32;;;;;;;;;;;;;;;28.55;100.00;149888.44;5055591;28;20396;-83
2022/08/23 09:56:59;;;;;;;;;;;;;;;28.50;100.00;149875.56;5054196;28;19917;-80
2022/08/23 09:59:24;;;;;;;;;;;;;;;28.15;100.00;149788.00;5055421;28;19958;-79
2022/08/23 10:01:50;;;;;;;;;;;;;;;28.26;100.00;149816.34;5054386;28;19924;-78
2022/08/23 10:04:28;;;;;;;;;;;;;;;28.19;100.00;149797.03;5054207;28;20422;-83
2022/08/23 10:06:53;;;;;;;;;;;;;;;28.16;100.00;149790.56;5054362;28;19917;-80
2022/08/23 10:09:27;;;;;;;;;;;;;;;27.95;100.00;149737.78;5054296;28;19917;-82
2022/08/23 10:11:54;;;;;;;;;;;;;;;27.97;100.00;149742.97;5052474;28;20274;-79
2022/08/23 10:14:21;;;;;;;;;;;;;;;27.88;100.00;149721.00;5054061;28;19939;-81
2022/08/23 10:17:02;;;;;;;;;;;;;;;27.91;100.00;149728.72;5055307;28;19917;-79
2022/08/23 10:19:39;;;;;;;;;;;;;;;27.86;100.00;149714.53;5053669;28;19970;-78
2022/08/23 10:22:07;;;;;;;;;;;;;;;27.97;100.00;149741.63;5054862;28;19956;-78
2022/08/23 10:24:35;;;;;;;;;;;;;;;28.35;100.00;149838.22;5053648;28;20002;-80
2022/08/23 10:30:04;;;;;;;;;;;;;;;27.69;100.00;149673.38;5054929;28;20541;-77
2022/08/23 10:32:40;;;;;;;;;;;;;;;27.61;100.00;149651.50;5052806;28;20007;-75
2022/08/23 10:35:17;;;;;;;;;;;;;;;27.80;100.00;149699.16;5055074;28;19998;-82
2022/08/23 10:37:45;;;;;;;;;;;;;;;28.11;100.00;149777.72;5053617;28;19921;-80
2022/08/23 10:40:18;;;;;;;;;;;;;;;28.34;100.00;149835.66;5054102;28;19928;-78
2022/08/23 10:42:53;;;;;;;;;;;;;;;28.42;100.00;149856.25;5054299;28;20055;-78
2022/08/23 10:45:27;;;;;;;;;;;;;;;28.56;100.00;149891.03;5053895;28;19927;-81
2022/08/23 10:47:57;;;;;;;;;;;;;;;28.76;100.00;149940.00;5054255;28;20015;-78
2022/08/23 10:50:24;;;;;;;;;;;;;;;28.64;100.00;149911.66;5054595;28;19923;-82
2022/08/23 10:53:03;;;;;;;;;;;;;;;29.06;100.00;150016.00;5054757;28;19928;-78
2022/08/23 10:55:38;;;;;;;;;;;;;;;28.86;100.00;149964.50;5058899;28;19917;-80
2022/08/23 10:58:05;;;;;;;;;;;;;;;29.29;100.00;150074.03;5055800;28;19916;-81
2022/08/23 11:00:32;;;;;;;;;;;;;;;29.05;100.00;150012.16;5053727;28;19921;-81
2022/08/23 11:03:04;;;;;;;;;;;;;;;29.27;100.00;150068.91;5054582;28;19917;-81
2022/08/23 11:05:31;;;;;;;;;;;;;;;29.05;100.00;150012.16;5053345;28;20396;-80
2022/08/23 11:07:58;;;;;;;;;;;;;;;29.22;100.00;150055.97;5056143;28;19970;-79
2022/08/23 11:10:45;;;;;;;;;;;;;;;28.89;100.00;149972.22;5059887;28;19917;-77
2022/08/23 11:13:15;;;;;;;;;;;;;;;28.13;100.00;149782.84;5058712;28;19917;-78
2022/08/23 11:15:43;;;;;;;;;;;;;;;28.38;100.00;149845.94;5062050;28;19924;-80
2022/08/23 11:18:28;;;;;;;;;;;;;;;28.64;100.00;149911.66;5055174;28;19932;-80
2022/08/23 11:20:56;;;;;;;;;;;;;;;28.47;100.00;149867.84;5055816;28;19917;-80
2022/08/23 11:23:40;;;;;;;;;;;;;;;28.69;100.00;149923.25;5059581;28;19917;-81
2022/08/23 11:26:09;;;;;;;;;;;;;;;28.26;100.00;149815.03;5053701;28;19921;-77
2022/08/23 11:28:45;;;;;;;;;;;;;;;28.26;100.00;149815.03;5050913;28;19917;-77
2022/08/23 11:31:10;;;;;;;;;;;;;;;28.57;100.00;149893.63;5052398;28;19921;-77
2022/08/23 11:33:36;;;;;;;;;;;;;;;28.80;100.00;149951.59;5053570;28;19917;-76
2022/08/23 11:36:08;;;;;;;;;;;;;;;28.80;100.00;149950.31;5052240;28;19913;-75
2022/08/23 11:38:42;;;;;;;;;;;;;;;29.09;100.00;150022.47;5052739;28;20019;-76
2022/08/23 11:41:13;;;;;;;;;;;;;;;29.15;100.00;150039.19;5051992;28;19923;-76
2022/08/23 11:43:40;;;;;;;;;;;;;;;29.30;100.00;150076.63;5052236;28;19921;-76
2022/08/23 11:46:14;;;;;;;;;;;;;;;29.19;100.00;150048.19;5052089;28;19919;-76
2022/08/23 11:48:42;;;;;;;;;;;;;;;29.31;100.00;150079.16;5051805;28;19921;-77
2022/08/23 11:51:13;;;;;;;;;;;;;;;29.43;100.00;150107.50;5052826;28;20473;-77
2022/08/23 11:53:52;;;;;;;;;;;;;;;29.44;100.00;150110.09;5053128;28;19921;-78
2022/08/23 11:56:44;;;;;;;;;;;;;;;29.25;100.00;150063.72;5051599;28;19920;-81
2022/08/23 11:59:23;;;;;;;;;;;;;;;29.50;100.00;150126.84;5051437;28;19917;-80
2022/08/23 12:01:48;;;;;;;;;;;;;;;29.56;100.00;150141.03;5052284;28;19921;-81
2022/08/23 12:04:33;;;;;;;;;;;;;;;29.43;100.00;150107.50;5051996;28;19931;-76
2022/08/23 12:07:03;;;;;;;;;;;;;;;29.28;100.00;150071.44;5052722;28;19923;-80
2022/08/23 12:09:28;;;;;;;;;;;;;;;29.40;100.00;150099.78;5052715;28;20374;-79
2022/08/23 12:11:53;;;;;;;;;;;;;;;29.48;100.00;150120.41;5052694;28;19916;-78
2022/08/23 12:14:35;;;;;;;;;;;;;;;29.58;100.00;150144.88;5052784;28;19916;-78
2022/08/23 12:17:02;;;;;;;;;;;;;;;29.21;100.00;150053.44;5051390;28;19912;-82
2022/08/23 12:19:32;;;;;;;;;;;;;;;29.15;100.00;150039.19;5051697;28;19923;-82
2022/08/23 12:22:04;;;;;;;;;;;;;;;29.27;100.00;150067.56;5051023;28;19917;-79
2022/08/23 12:24:40;;;;;;;;;;;;;;;29.33;100.00;150084.34;5051234;28;19917;-81
2022/08/23 12:27:31;;;;;;;;;;;;;;;29.66;100.00;150165.50;5052468;28;19967;-81
2022/08/23 12:29:59;;;;;;;;;;;;;;;29.44;100.00;150110.09;5034700;28;19927;-83
2022/08/23 12:32:41;;;;;;;;;;;;;;;29.10;100.00;150026.31;5053239;28;19956;-82
2022/08/23 12:35:09;;;;;;;;;;;;;;;29.22;100.00;150054.69;5051400;28;19923;-78
2022/08/23 12:37:53;;;;;;;;;;;;;;;29.28;100.00;150070.16;5051976;28;19921;-80
2022/08/23 12:40:28;;;;;;;;;;;;;;;29.27;100.00;150068.91;5051451;28;20427;-81
2022/08/23 12:43:26;;;;;;;;;;;;;;;29.41;100.00;150102.38;5051199;28;19917;-81
2022/08/23 12:45:56;;;;;;;;;;;;;;;29.25;100.00;150062.44;5050785;28;19971;-82